Time;durP1;ratioP1;P1;durP2;ratioP2;P2;SDS_P1;SDS_P2;PMS_P1;PMS_P2;Temp;Humidity;BMP_temperature;BMP_pressure;BME280_temperature;BME280_humidity;BME280_pressure;Samples;Min_cycle;Max_cycle;Signal;HPM_P1;HPM_P2
2023/11/26 00:02:20;;;;;;;;;;;;;;;;;;2206095;59;2381;-77
2023/11/26 00:04:51;;;;;;;;;;;;;;;;;;2204503;59;1990;-77
2023/11/26 00:07:21;;;;;;;;;;;;;;;;;;2205487;59;1836;-78
2023/11/26 00:09:51;;;;;;;;;;;;;;;;;;2206105;59;1640;-77
2023/11/26 00:12:22;;;;;;;;;;;;;;;;;;2205887;59;1688;-77
2023/11/26 00:14:52;;;;;;;;;;;;;;;;;;2206796;59;1561;-78
2023/11/26 00:17:24;;;;;;;;;;;;;;;;;;2205381;59;1795;-77
2023/11/26 00:19:54;;;;;;;;;;;;;;;;;;2206312;59;2865;-78
2023/11/26 00:22:28;;;;;;;;;;;;;;;;;;2205159;59;2404;-77
2023/11/26 00:24:58;;;;;;;;;;;;;;;;;;2206324;59;2257;-77
2023/11/26 00:27:28;;;;;;;;;;;;;;;;;;2205896;59;1813;-78
2023/11/26 00:29:59;;;;;;;;;;;;;;;;;;2207419;59;2118;-77
2023/11/26 00:32:29;;;;;;;;;;;;;;;;;;2206217;59;1747;-77
2023/11/26 00:34:59;;;;;;;;;;;;;;;;;;2206878;59;1659;-78
2023/11/26 00:37:30;;;;;;;;;;;;;;;;;;2205973;59;1852;-77
2023/11/26 00:40:00;;;;;;;;;;;;;;;;;;2207349;59;1722;-77
2023/11/26 00:42:30;;;;;;;;;;;;;;;;;;2206580;59;1884;-77
2023/11/26 00:45:01;;;;;;;;;;;;;;;;;;2207405;59;2566;-77
2023/11/26 00:47:31;;;;;;;;;;;;;;;;;;2207498;59;1991;-77
2023/11/26 00:50:03;;;;;;;;;;;;;;;;;;2206774;59;1667;-77
2023/11/26 00:52:33;;;;;;;;;;;;;;;;;;2207926;59;2382;-77
2023/11/26 00:55:06;;;;;;;;;;;;;;;;;;2207182;67;1740;-77
2023/11/26 00:57:36;;;;;;;;;;;;;;;;;;2207590;59;1779;-78
2023/11/26 01:00:09;;;;;;;;;;;;;;;;;;2206700;59;1834;-77
2023/11/26 01:02:41;;;;;;;;;;;;;;;;;;2209849;59;1642;-77
2023/11/26 01:05:12;;;;;;;;;;;;;;;;;;2211803;59;2120;-77
2023/11/26 01:07:42;;;;;;;;;;;;;;;;;;2211295;59;1662;-78
2023/11/26 01:10:13;;;;;;;;;;;;;;;;;;2210749;59;2351;-78
2023/11/26 01:12:43;;;;;;;;;;;;;;;;;;2211893;59;2332;-77
2023/11/26 01:15:14;;;;;;;;;;;;;;;;;;2210896;59;1879;-78
2023/11/26 01:17:45;;;;;;;;;;;;;;;;;;2210176;59;1674;-77
2023/11/26 01:20:16;;;;;;;;;;;;;;;;;;2208996;59;1932;-78
2023/11/26 01:22:47;;;;;;;;;;;;;;;;;;2203968;59;2249;-77
2023/11/26 01:25:17;;;;;;;;;;;;;;;;;;2205739;59;2367;-78
2023/11/26 01:27:47;;;;;;;;;;;;;;;;;;2207077;59;2170;-78
2023/11/26 01:30:18;;;;;;;;;;;;;;;;;;2207312;59;1810;-77
2023/11/26 01:32:48;;;;;;;;;;;;;;;;;;2208405;59;2072;-78
2023/11/26 01:35:18;;;;;;;;;;;;;;;;;;2210333;59;1989;-77
2023/11/26 01:37:49;;;;;;;;;;;;;;;;;;2213255;59;1785;-77
2023/11/26 01:40:19;;;;;;;;;;;;;;;;;;2207430;59;2239;-77
2023/11/26 01:42:49;;;;;;;;;;;;;;;;;;2207986;59;1838;-78
2023/11/26 01:45:22;;;;;;;;;;;;;;;;;;2207822;59;1929;-77
2023/11/26 01:47:53;;;;;;;;;;;;;;;;;;2207735;59;1680;-77
2023/11/26 01:50:24;;;;;;;;;;;;;;;;;;2207569;59;1737;-77
2023/11/26 01:52:55;;;;;;;;;;;;;;;;;;2208634;59;1998;-77
2023/11/26 01:55:26;;;;;;;;;;;;;;;;;;2207374;59;1995;-78
2023/11/26 01:57:56;;;;;;;;;;;;;;;;;;2208012;59;1925;-77
2023/11/26 02:00:26;;;;;;;;;;;;;;;;;;2207773;59;1899;-78
2023/11/26 02:02:57;;;;;;;;;;;;;;;;;;2208011;59;2270;-78
2023/11/26 02:05:27;;;;;;;;;;;;;;;;;;2208415;59;2593;-77
2023/11/26 02:08:00;;;;;;;;;;;;;;;;;;2207824;59;1909;-77
2023/11/26 02:10:30;;;;;;;;;;;;;;;;;;2203968;59;1740;-77
2023/11/26 02:13:01;;;;;;;;;;;;;;;;;;2208448;59;1750;-77
2023/11/26 02:15:35;;;;;;;;;;;;;;;;;;2209973;59;2517;-77
2023/11/26 02:18:05;;;;;;;;;;;;;;;;;;2206935;59;1829;-77
2023/11/26 02:20:36;;;;;;;;;;;;;;;;;;2206820;59;1817;-77
2023/11/26 02:23:09;;;;;;;;;;;;;;;;;;2207307;59;1826;-78
2023/11/26 02:25:40;;;;;;;;;;;;;;;;;;2206649;59;2285;-77
2023/11/26 02:28:10;;;;;;;;;;;;;;;;;;2207394;59;2104;-77
2023/11/26 02:30:46;;;;;;;;;;;;;;;;;;2208197;59;2210;-77
2023/11/26 02:33:16;;;;;;;;;;;;;;;;;;2206835;59;2454;-78
2023/11/26 02:35:49;;;;;;;;;;;;;;;;;;2208409;59;1987;-78
2023/11/26 02:38:20;;;;;;;;;;;;;;;;;;2207609;59;1742;-77
2023/11/26 02:40:50;;;;;;;;;;;;;;;;;;2207842;59;1840;-78
2023/11/26 02:43:20;;;;;;;;;;;;;;;;;;2204174;59;1560;-78
2023/11/26 02:45:56;;;;;;;;;;;;;;;;;;2207548;59;1935;-78
2023/11/26 02:48:27;;;;;;;;;;;;;;;;;;2207022;59;1642;-78
2023/11/26 02:50:57;;;;;;;;;;;;;;;;;;2207460;59;1775;-78
2023/11/26 02:53:27;;;;;;;;;;;;;;;;;;2206574;59;1715;-78
2023/11/26 02:55:58;;;;;;;;;;;;;;;;;;2207440;59;1605;-79
2023/11/26 02:58:28;;;;;;;;;;;;;;;;;;2206584;59;2510;-77
2023/11/26 03:00:58;;;;;;;;;;;;;;;;;;2208118;59;1775;-77
2023/11/26 03:03:28;;;;;;;;;;;;;;;;;;2207219;59;1761;-78
2023/11/26 03:05:59;;;;;;;;;;;;;;;;;;2205086;67;1948;-78
2023/11/26 03:08:38;;;;;;;;;;;;;;;;;;2206477;59;1965;-77
2023/11/26 03:14:22;;;;;;;;;;;;;;;;;;2206596;59;1660;-78
2023/11/26 03:16:54;;;;;;;;;;;;;;;;;;2207972;59;1736;-78
2023/11/26 03:19:25;;;;;;;;;;;;;;;;;;2205280;59;1897;-77
2023/11/26 03:21:55;;;;;;;;;;;;;;;;;;2205937;59;2034;-78
2023/11/26 03:24:27;;;;;;;;;;;;;;;;;;2206256;59;2093;-78
2023/11/26 03:26:58;;;;;;;;;;;;;;;;;;2207377;59;2270;-78
2023/11/26 03:29:28;;;;;;;;;;;;;;;;;;2209514;59;2276;-77
2023/11/26 03:31:59;;;;;;;;;;;;;;;;;;2212259;59;2023;-78
2023/11/26 03:34:30;;;;;;;;;;;;;;;;;;2210587;59;1891;-78
2023/11/26 03:37:00;;;;;;;;;;;;;;;;;;2211523;59;1862;-78
2023/11/26 03:39:35;;;;;;;;;;;;;;;;;;2210767;59;1812;-78
2023/11/26 03:42:06;;;;;;;;;;;;;;;;;;2211694;59;1867;-78
2023/11/26 03:44:36;;;;;;;;;;;;;;;;;;2210151;59;1988;-77
2023/11/26 03:47:08;;;;;;;;;;;;;;;;;;2213734;59;1730;-77
2023/11/26 03:49:41;;;;;;;;;;;;;;;;;;2209595;59;1980;-77
2023/11/26 03:52:12;;;;;;;;;;;;;;;;;;2212458;59;1813;-77
2023/11/26 03:54:42;;;;;;;;;;;;;;;;;;2208585;59;2002;-77
2023/11/26 03:57:12;;;;;;;;;;;;;;;;;;2211791;59;1528;-77
2023/11/26 03:59:45;;;;;;;;;;;;;;;;;;2211437;59;1825;-77
2023/11/26 04:02:16;;;;;;;;;;;;;;;;;;2208385;59;2316;-78
2023/11/26 04:04:51;;;;;;;;;;;;;;;;;;2210606;59;1974;-78
2023/11/26 04:07:24;;;;;;;;;;;;;;;;;;2210823;59;1798;-78
2023/11/26 04:09:54;;;;;;;;;;;;;;;;;;2210891;59;2023;-79
2023/11/26 04:12:25;;;;;;;;;;;;;;;;;;2209874;59;2407;-78
2023/11/26 04:14:56;;;;;;;;;;;;;;;;;;2212019;66;1852;-78
2023/11/26 04:17:26;;;;;;;;;;;;;;;;;;2211362;59;1922;-78
2023/11/26 04:19:57;;;;;;;;;;;;;;;;;;2210600;59;1573;-78
2023/11/26 04:22:27;;;;;;;;;;;;;;;;;;2206615;59;2073;-77
2023/11/26 04:24:58;;;;;;;;;;;;;;;;;;2207229;59;1929;-78
2023/11/26 04:27:28;;;;;;;;;;;;;;;;;;2204617;59;2680;-78
2023/11/26 04:30:03;;;;;;;;;;;;;;;;;;2206799;59;2461;-77
2023/11/26 04:32:33;;;;;;;;;;;;;;;;;;2204530;59;2168;-77
2023/11/26 04:35:06;;;;;;;;;;;;;;;;;;2206134;59;1693;-77
2023/11/26 04:37:38;;;;;;;;;;;;;;;;;;2205508;59;1944;-78
2023/11/26 04:40:10;;;;;;;;;;;;;;;;;;2207706;59;1884;-77
2023/11/26 04:42:40;;;;;;;;;;;;;;;;;;2205322;59;2116;-77
2023/11/26 04:45:11;;;;;;;;;;;;;;;;;;2207100;59;1931;-77
2023/11/26 04:47:41;;;;;;;;;;;;;;;;;;2206226;60;1869;-77
2023/11/26 04:50:12;;;;;;;;;;;;;;;;;;2207999;59;2546;-77
2023/11/26 04:52:43;;;;;;;;;;;;;;;;;;2205823;59;2467;-77
2023/11/26 04:55:13;;;;;;;;;;;;;;;;;;2206838;59;1849;-78
2023/11/26 04:57:47;;;;;;;;;;;;;;;;;;2202947;59;2702;-78
2023/11/26 05:00:21;;;;;;;;;;;;;;;;;;2205995;59;1873;-77
2023/11/26 05:02:53;;;;;;;;;;;;;;;;;;2207439;59;2294;-78
2023/11/26 05:05:23;;;;;;;;;;;;;;;;;;2206007;59;1943;-78
2023/11/26 05:07:53;;;;;;;;;;;;;;;;;;2206570;59;1680;-78
2023/11/26 05:10:26;;;;;;;;;;;;;;;;;;2206586;59;1975;-78
2023/11/26 05:12:56;;;;;;;;;;;;;;;;;;2206521;59;1656;-77
2023/11/26 05:15:26;;;;;;;;;;;;;;;;;;2206468;59;1732;-77
2023/11/26 05:17:57;;;;;;;;;;;;;;;;;;2206013;59;1693;-78
2023/11/26 05:20:27;;;;;;;;;;;;;;;;;;2206183;59;1494;-79
2023/11/26 05:22:57;;;;;;;;;;;;;;;;;;2206938;59;2067;-77
2023/11/26 05:25:28;;;;;;;;;;;;;;;;;;2207560;66;1963;-77
2023/11/26 05:27:58;;;;;;;;;;;;;;;;;;2205688;59;2653;-77
2023/11/26 05:30:28;;;;;;;;;;;;;;;;;;2204581;59;2295;-77
2023/11/26 05:32:59;;;;;;;;;;;;;;;;;;2207294;59;1987;-77
2023/11/26 05:35:29;;;;;;;;;;;;;;;;;;2207647;59;1865;-78
2023/11/26 05:38:01;;;;;;;;;;;;;;;;;;2205164;59;1467;-77
2023/11/26 05:40:32;;;;;;;;;;;;;;;;;;2203365;59;1929;-78
2023/11/26 05:43:02;;;;;;;;;;;;;;;;;;2208008;59;1599;-78
2023/11/26 05:45:33;;;;;;;;;;;;;;;;;;2206854;59;1905;-81
2023/11/26 05:48:03;;;;;;;;;;;;;;;;;;2207862;59;1892;-78
2023/11/26 05:50:37;;;;;;;;;;;;;;;;;;2206143;59;1508;-78
2023/11/26 05:53:07;;;;;;;;;;;;;;;;;;2207657;59;2200;-78
2023/11/26 05:55:38;;;;;;;;;;;;;;;;;;2206044;59;2129;-77
2023/11/26 05:58:08;;;;;;;;;;;;;;;;;;2206892;59;1724;-77
2023/11/26 06:00:48;;;;;;;;;;;;;;;;;;2207731;59;1827;-78
2023/11/26 06:03:18;;;;;;;;;;;;;;;;;;2207740;59;2345;-78
2023/11/26 06:05:48;;;;;;;;;;;;;;;;;;2205917;67;2057;-77
2023/11/26 06:08:21;;;;;;;;;;;;;;;;;;2207637;59;1748;-78
2023/11/26 06:10:52;;;;;;;;;;;;;;;;;;2207354;59;2139;-78
2023/11/26 06:13:23;;;;;;;;;;;;;;;;;;2207637;67;1802;-81
2023/11/26 06:16:03;;;;;;;;;;;;;;;;;;2204358;59;1884;-78
2023/11/26 06:18:33;;;;;;;;;;;;;;;;;;2206678;59;1761;-77
2023/11/26 06:21:04;;;;;;;;;;;;;;;;;;2207197;67;2154;-78
2023/11/26 06:23:34;;;;;;;;;;;;;;;;;;2207251;67;1802;-77
2023/11/26 06:26:08;;;;;;;;;;;;;;;;;;2216062;59;2165;-77
2023/11/26 06:28:38;;;;;;;;;;;;;;;;;;2204830;59;2131;-77
2023/11/26 06:31:08;;;;;;;;;;;;;;;;;;2206185;59;2471;-77
2023/11/26 06:33:39;;;;;;;;;;;;;;;;;;2206707;59;2414;-77
2023/11/26 06:36:16;;;;;;;;;;;;;;;;;;2206095;59;1714;-78
2023/11/26 06:38:46;;;;;;;;;;;;;;;;;;2205330;59;1751;-77
2023/11/26 06:41:27;;;;;;;;;;;;;;;;;;2207455;59;1991;-77
2023/11/26 06:43:59;;;;;;;;;;;;;;;;;;2206853;59;1621;-78
2023/11/26 06:46:29;;;;;;;;;;;;;;;;;;2206082;59;1951;-77
2023/11/26 06:48:59;;;;;;;;;;;;;;;;;;2207040;59;1789;-77
2023/11/26 06:51:30;;;;;;;;;;;;;;;;;;2202403;67;1666;-77
2023/11/26 06:54:00;;;;;;;;;;;;;;;;;;2206696;59;1854;-78
2023/11/26 06:56:36;;;;;;;;;;;;;;;;;;2207149;59;2276;-77
2023/11/26 06:59:06;;;;;;;;;;;;;;;;;;2204946;67;1956;-77
2023/11/26 07:01:36;;;;;;;;;;;;;;;;;;2206401;59;1785;-77
2023/11/26 07:04:06;;;;;;;;;;;;;;;;;;2207210;59;2457;-77
2023/11/26 07:06:37;;;;;;;;;;;;;;;;;;2205953;59;1824;-77
2023/11/26 07:09:15;;;;;;;;;;;;;;;;;;2206967;59;2589;-79
2023/11/26 07:11:46;;;;;;;;;;;;;;;;;;2207028;59;1910;-77
2023/11/26 07:14:19;;;;;;;;;;;;;;;;;;2208691;59;2179;-77
2023/11/26 07:16:52;;;;;;;;;;;;;;;;;;2205753;59;1697;-78
2023/11/26 07:19:24;;;;;;;;;;;;;;;;;;2207326;59;2144;-77
2023/11/26 07:21:55;;;;;;;;;;;;;;;;;;2206659;59;2248;-77
2023/11/26 07:24:25;;;;;;;;;;;;;;;;;;2206246;59;2081;-78
2023/11/26 07:26:56;;;;;;;;;;;;;;;;;;2200742;59;1801;-77
2023/11/26 07:29:26;;;;;;;;;;;;;;;;;;2204807;59;2502;-78
2023/11/26 07:31:56;;;;;;;;;;;;;;;;;;2205987;59;2359;-78
2023/11/26 07:34:27;;;;;;;;;;;;;;;;;;2206150;59;2044;-77
2023/11/26 07:36:57;;;;;;;;;;;;;;;;;;2206937;67;1934;-78
2023/11/26 07:39:27;;;;;;;;;;;;;;;;;;2206575;59;1887;-77
2023/11/26 07:41:58;;;;;;;;;;;;;;;;;;2206731;59;2436;-77
2023/11/26 07:44:29;;;;;;;;;;;;;;;;;;2206169;59;1989;-77
2023/11/26 07:47:01;;;;;;;;;;;;;;;;;;2208408;59;1779;-77
2023/11/26 07:49:32;;;;;;;;;;;;;;;;;;2207201;59;2148;-77
2023/11/26 07:52:03;;;;;;;;;;;;;;;;;;2202595;59;2289;-77
2023/11/26 07:54:34;;;;;;;;;;;;;;;;;;2205288;59;2108;-77
2023/11/26 07:57:04;;;;;;;;;;;;;;;;;;2205025;59;2076;-77
2023/11/26 07:59:34;;;;;;;;;;;;;;;;;;2196783;59;9040;-78
2023/11/26 08:02:08;;;;;;;;;;;;;;;;;;2201764;59;2030;-77
2023/11/26 08:04:39;;;;;;;;;;;;;;;;;;2202503;59;1932;-77
2023/11/26 08:07:09;;;;;;;;;;;;;;;;;;2202285;59;1732;-77
2023/11/26 08:09:39;;;;;;;;;;;;;;;;;;2202500;59;1847;-78
2023/11/26 08:12:13;;;;;;;;;;;;;;;;;;2203655;59;2106;-77
2023/11/26 08:14:44;;;;;;;;;;;;;;;;;;2202380;59;2040;-77
2023/11/26 08:17:17;;;;;;;;;;;;;;;;;;2203271;59;1840;-77
2023/11/26 08:19:47;;;;;;;;;;;;;;;;;;2201757;59;2074;-77
2023/11/26 08:22:19;;;;;;;;;;;;;;;;;;2202702;59;2057;-77
2023/11/26 08:24:52;;;;;;;;;;;;;;;;;;2204267;59;2023;-77
2023/11/26 08:27:28;;;;;;;;;;;;;;;;;;2208670;59;2182;-77
2023/11/26 08:30:01;;;;;;;;;;;;;;;;;;2205709;59;2163;-77
2023/11/26 08:32:34;;;;;;;;;;;;;;;;;;2200420;59;8621;-77
2023/11/26 08:35:07;;;;;;;;;;;;;;;;;;2200796;59;19321;-77
2023/11/26 08:37:43;;;;;;;;;;;;;;;;;;2202214;59;2300;-78
2023/11/26 08:40:14;;;;;;;;;;;;;;;;;;2203089;59;2171;-78
2023/11/26 08:42:47;;;;;;;;;;;;;;;;;;2199710;59;7618;-77
2023/11/26 08:45:17;;;;;;;;;;;;;;;;;;2210154;59;2204;-77
2023/11/26 08:47:48;;;;;;;;;;;;;;;;;;2209252;59;2007;-78
2023/11/26 08:50:18;;;;;;;;;;;;;;;;;;2200952;59;18275;-77
2023/11/26 08:52:49;;;;;;;;;;;;;;;;;;2208227;59;2323;-78
2023/11/26 08:55:20;;;;;;;;;;;;;;;;;;2211188;59;2033;-78
2023/11/26 08:57:50;;;;;;;;;;;;;;;;;;2209923;58;2411;-78
2023/11/26 09:00:20;;;;;;;;;;;;;;;;;;2211411;66;1864;-78
2023/11/26 09:02:50;;;;;;;;;;;;;;;;;;2209564;58;2292;-78
2023/11/26 09:05:21;;;;;;;;;;;;;;;;;;2210939;58;1928;-78
2023/11/26 09:07:51;;;;;;;;;;;;;;;;;;2209883;59;1999;-78
2023/11/26 09:10:22;;;;;;;;;;;;;;;;;;2211298;58;1655;-78
2023/11/26 09:12:52;;;;;;;;;;;;;;;;;;2210038;59;2141;-78
2023/11/26 09:15:26;;;;;;;;;;;;;;;;;;2211436;58;1722;-78
2023/11/26 09:17:56;;;;;;;;;;;;;;;;;;2209993;58;2129;-78
2023/11/26 09:20:26;;;;;;;;;;;;;;;;;;2211232;58;1925;-78
2023/11/26 09:22:59;;;;;;;;;;;;;;;;;;2210985;58;1958;-78
2023/11/26 09:25:32;;;;;;;;;;;;;;;;;;2210635;66;1988;-77
2023/11/26 09:28:03;;;;;;;;;;;;;;;;;;2211004;58;1989;-77
2023/11/26 09:30:37;;;;;;;;;;;;;;;;;;2210654;59;2592;-78
2023/11/26 09:33:09;;;;;;;;;;;;;;;;;;2210737;59;2385;-78
2023/11/26 09:35:39;;;;;;;;;;;;;;;;;;2210936;59;1732;-81
2023/11/26 09:38:10;;;;;;;;;;;;;;;;;;2210156;59;1793;-78
2023/11/26 09:40:41;;;;;;;;;;;;;;;;;;2210756;59;1756;-78
2023/11/26 09:43:32;;;;;;;;;;;;;;;;;;2212028;59;2520;-77
2023/11/26 09:46:06;;;;;;;;;;;;;;;;;;2211189;59;1970;-78
2023/11/26 09:48:37;;;;;;;;;;;;;;;;;;2209369;59;1908;-78
2023/11/26 09:51:08;;;;;;;;;;;;;;;;;;2214221;66;1596;-78
2023/11/26 09:53:45;;;;;;;;;;;;;;;;;;2212485;58;2258;-77
2023/11/26 09:56:19;;;;;;;;;;;;;;;;;;2212161;58;2135;-78
2023/11/26 09:58:52;;;;;;;;;;;;;;;;;;2211221;59;2345;-78
2023/11/26 10:01:22;;;;;;;;;;;;;;;;;;2213813;58;2033;-78
2023/11/26 10:03:56;;;;;;;;;;;;;;;;;;2213770;59;1993;-78
2023/11/26 10:06:27;;;;;;;;;;;;;;;;;;2209972;59;2251;-78
2023/11/26 10:08:58;;;;;;;;;;;;;;;;;;2212662;58;2175;-79
2023/11/26 10:11:28;;;;;;;;;;;;;;;;;;2213805;58;2549;-78
2023/11/26 10:13:58;;;;;;;;;;;;;;;;;;2213471;59;2177;-78
2023/11/26 10:16:33;;;;;;;;;;;;;;;;;;2210707;59;9120;-78
2023/11/26 10:19:04;;;;;;;;;;;;;;;;;;2210267;58;2170;-79
2023/11/26 10:21:42;;;;;;;;;;;;;;;;;;2212698;59;2369;-78
2023/11/26 10:24:18;;;;;;;;;;;;;;;;;;2215260;59;2339;-78
2023/11/26 10:26:52;;;;;;;;;;;;;;;;;;2213091;59;2131;-78
2023/11/26 10:29:25;;;;;;;;;;;;;;;;;;2213901;59;2470;-78
2023/11/26 10:31:59;;;;;;;;;;;;;;;;;;2209369;59;2209;-78
2023/11/26 10:34:33;;;;;;;;;;;;;;;;;;2212854;59;2425;-78
2023/11/26 10:37:17;;;;;;;;;;;;;;;;;;2212428;59;2169;-79
2023/11/26 10:39:56;;;;;;;;;;;;;;;;;;2206356;59;2087;-77
2023/11/26 10:42:29;;;;;;;;;;;;;;;;;;2211996;59;2463;-78
2023/11/26 10:44:59;;;;;;;;;;;;;;;;;;2206747;59;3338;-79
2023/11/26 10:47:32;;;;;;;;;;;;;;;;;;2212527;66;1651;-78
2023/11/26 10:50:08;;;;;;;;;;;;;;;;;;2211939;58;2803;-78
2023/11/26 10:52:42;;;;;;;;;;;;;;;;;;2212295;59;2966;-78
2023/11/26 10:55:15;;;;;;;;;;;;;;;;;;2210361;59;1993;-78
2023/11/26 10:57:50;;;;;;;;;;;;;;;;;;2211699;58;2385;-78
2023/11/26 11:00:21;;;;;;;;;;;;;;;;;;2210647;59;2419;-78
2023/11/26 11:02:53;;;;;;;;;;;;;;;;;;2211278;58;2557;-78
2023/11/26 11:05:23;;;;;;;;;;;;;;;;;;2211372;59;2449;-80
2023/11/26 11:07:54;;;;;;;;;;;;;;;;;;2211071;58;2676;-78
2023/11/26 11:10:31;;;;;;;;;;;;;;;;;;2211208;59;2594;-78
2023/11/26 11:13:20;;;;;;;;;;;;;;;;;;2210500;59;2676;-78
2023/11/26 11:15:51;;;;;;;;;;;;;;;;;;2212447;59;2266;-78
2023/11/26 11:18:38;;;;;;;;;;;;;;;;;;2210911;59;2470;-77
2023/11/26 11:21:12;;;;;;;;;;;;;;;;;;2206739;59;1991;-78
2023/11/26 11:23:47;;;;;;;;;;;;;;;;;;2208096;59;2606;-78
2023/11/26 11:26:21;;;;;;;;;;;;;;;;;;2210779;58;3197;-79
2023/11/26 11:28:53;;;;;;;;;;;;;;;;;;2209907;59;3186;-78
2023/11/26 11:31:43;;;;;;;;;;;;;;;;;;2211896;59;2187;-78
2023/11/26 11:34:14;;;;;;;;;;;;;;;;;;2208921;58;2642;-78
2023/11/26 11:36:47;;;;;;;;;;;;;;;;;;2206534;59;2557;-78
2023/11/26 11:39:21;;;;;;;;;;;;;;;;;;2211395;59;2243;-78
2023/11/26 11:41:57;;;;;;;;;;;;;;;;;;2210593;59;2295;-78
2023/11/26 11:44:31;;;;;;;;;;;;;;;;;;2210511;59;2107;-77
2023/11/26 11:47:02;;;;;;;;;;;;;;;;;;2207787;59;3694;-78
2023/11/26 11:49:45;;;;;;;;;;;;;;;;;;2210025;59;2188;-78
2023/11/26 11:52:16;;;;;;;;;;;;;;;;;;2211500;59;2257;-78
2023/11/26 11:54:52;;;;;;;;;;;;;;;;;;2210704;59;2241;-78
2023/11/26 11:57:23;;;;;;;;;;;;;;;;;;2209666;59;2000;-78
2023/11/26 12:00:03;;;;;;;;;;;;;;;;;;2207458;58;2806;-77
2023/11/26 12:02:34;;;;;;;;;;;;;;;;;;2206909;59;2404;-77
2023/11/26 12:05:19;;;;;;;;;;;;;;;;;;2207903;59;2317;-78
2023/11/26 12:07:49;;;;;;;;;;;;;;;;;;2206721;59;2205;-77
2023/11/26 12:10:20;;;;;;;;;;;;;;;;;;2208579;59;2070;-77
2023/11/26 12:13:06;;;;;;;;;;;;;;;;;;2205052;59;2452;-77
2023/11/26 12:15:40;;;;;;;;;;;;;;;;;;2210334;59;2013;-78
2023/11/26 12:18:10;;;;;;;;;;;;;;;;;;2206929;59;2177;-78
2023/11/26 12:20:45;;;;;;;;;;;;;;;;;;2209042;59;2969;-78
2023/11/26 12:23:32;;;;;;;;;;;;;;;;;;2209698;59;2344;-77
2023/11/26 12:26:03;;;;;;;;;;;;;;;;;;2205261;59;2572;-77
2023/11/26 12:28:41;;;;;;;;;;;;;;;;;;2208590;58;2439;-77
2023/11/26 12:31:12;;;;;;;;;;;;;;;;;;2208639;59;2769;-78
2023/11/26 12:33:47;;;;;;;;;;;;;;;;;;2210343;59;2449;-77
2023/11/26 12:36:18;;;;;;;;;;;;;;;;;;2209097;59;2388;-78
2023/11/26 12:38:48;;;;;;;;;;;;;;;;;;2207296;59;3327;-77
2023/11/26 12:41:22;;;;;;;;;;;;;;;;;;2208782;59;2233;-78
2023/11/26 12:43:56;;;;;;;;;;;;;;;;;;2206999;59;2240;-77
2023/11/26 12:46:27;;;;;;;;;;;;;;;;;;2207199;59;2265;-77
2023/11/26 12:49:00;;;;;;;;;;;;;;;;;;2208916;59;2676;-77
2023/11/26 12:51:30;;;;;;;;;;;;;;;;;;2208080;59;2399;-77
2023/11/26 12:54:01;;;;;;;;;;;;;;;;;;2209227;58;2469;-77
2023/11/26 12:56:31;;;;;;;;;;;;;;;;;;2209438;59;2418;-78
2023/11/26 12:59:02;;;;;;;;;;;;;;;;;;2208859;58;2330;-77
2023/11/26 13:01:35;;;;;;;;;;;;;;;;;;2208648;58;2418;-77
2023/11/26 13:04:06;;;;;;;;;;;;;;;;;;2204809;59;2364;-77
2023/11/26 13:06:51;;;;;;;;;;;;;;;;;;2209386;59;2652;-77
2023/11/26 13:09:23;;;;;;;;;;;;;;;;;;2210472;59;2253;-77
2023/11/26 13:12:04;;;;;;;;;;;;;;;;;;2210124;59;2338;-77
2023/11/26 13:14:38;;;;;;;;;;;;;;;;;;2213624;59;2319;-77
2023/11/26 13:17:11;;;;;;;;;;;;;;;;;;2213514;58;2366;-77
2023/11/26 13:19:47;;;;;;;;;;;;;;;;;;2211701;58;3684;-77
2023/11/26 13:22:17;;;;;;;;;;;;;;;;;;2206412;59;2196;-78
2023/11/26 13:24:47;;;;;;;;;;;;;;;;;;2208131;59;2464;-77
2023/11/26 13:27:17;;;;;;;;;;;;;;;;;;2208672;59;2267;-77
2023/11/26 13:29:48;;;;;;;;;;;;;;;;;;2208791;59;2405;-78
2023/11/26 13:32:18;;;;;;;;;;;;;;;;;;2206581;59;2462;-76
2023/11/26 13:34:49;;;;;;;;;;;;;;;;;;2205336;58;2453;-77
2023/11/26 13:37:20;;;;;;;;;;;;;;;;;;2208835;59;2336;-77
2023/11/26 13:39:51;;;;;;;;;;;;;;;;;;2209687;58;2156;-78
2023/11/26 13:42:21;;;;;;;;;;;;;;;;;;2206760;59;2204;-79
2023/11/26 13:44:51;;;;;;;;;;;;;;;;;;2209399;58;2277;-77
2023/11/26 13:47:22;;;;;;;;;;;;;;;;;;2205630;59;2248;-77
2023/11/26 13:49:52;;;;;;;;;;;;;;;;;;2208504;59;2468;-76
2023/11/26 13:52:24;;;;;;;;;;;;;;;;;;2207158;59;2272;-77
2023/11/26 13:54:56;;;;;;;;;;;;;;;;;;2205907;59;2204;-77
2023/11/26 13:57:26;;;;;;;;;;;;;;;;;;2209295;59;2247;-78
2023/11/26 13:59:57;;;;;;;;;;;;;;;;;;2207433;59;2307;-77
2023/11/26 14:02:28;;;;;;;;;;;;;;;;;;2209904;59;2202;-77
2023/11/26 14:04:58;;;;;;;;;;;;;;;;;;2209791;59;2253;-77
2023/11/26 14:07:29;;;;;;;;;;;;;;;;;;2204348;59;2350;-77
2023/11/26 14:10:00;;;;;;;;;;;;;;;;;;2208694;59;2628;-77
2023/11/26 14:12:33;;;;;;;;;;;;;;;;;;2207324;59;2453;-78
2023/11/26 14:15:03;;;;;;;;;;;;;;;;;;2207046;59;2247;-77
2023/11/26 14:17:34;;;;;;;;;;;;;;;;;;2208418;58;2454;-78
2023/11/26 14:20:06;;;;;;;;;;;;;;;;;;2207902;59;2392;-77
2023/11/26 14:22:37;;;;;;;;;;;;;;;;;;2207672;58;3265;-77
2023/11/26 14:25:11;;;;;;;;;;;;;;;;;;2208828;59;2513;-76
2023/11/26 14:27:44;;;;;;;;;;;;;;;;;;2208718;59;2465;-77
2023/11/26 14:30:16;;;;;;;;;;;;;;;;;;2208454;59;2213;-76
2023/11/26 14:32:46;;;;;;;;;;;;;;;;;;2205928;59;2276;-77
2023/11/26 14:35:18;;;;;;;;;;;;;;;;;;2208346;59;2410;-78
2023/11/26 14:37:48;;;;;;;;;;;;;;;;;;2207640;58;2594;-77
2023/11/26 14:40:20;;;;;;;;;;;;;;;;;;2205397;59;2906;-77
2023/11/26 14:42:51;;;;;;;;;;;;;;;;;;2204973;58;2270;-77
2023/11/26 14:45:21;;;;;;;;;;;;;;;;;;2202591;59;2219;-77
2023/11/26 14:47:56;;;;;;;;;;;;;;;;;;2206075;59;2504;-77
2023/11/26 14:50:29;;;;;;;;;;;;;;;;;;2209238;58;2212;-77
2023/11/26 14:53:01;;;;;;;;;;;;;;;;;;2205945;59;2256;-76
2023/11/26 14:55:31;;;;;;;;;;;;;;;;;;2206423;59;2488;-78
2023/11/26 14:58:05;;;;;;;;;;;;;;;;;;2205263;59;2594;-77
2023/11/26 15:00:35;;;;;;;;;;;;;;;;;;2208767;59;3404;-77
2023/11/26 15:03:05;;;;;;;;;;;;;;;;;;2209367;59;2311;-77
2023/11/26 15:05:36;;;;;;;;;;;;;;;;;;2209716;59;2238;-77
2023/11/26 15:08:09;;;;;;;;;;;;;;;;;;2209879;58;3293;-77
2023/11/26 15:10:43;;;;;;;;;;;;;;;;;;2211001;58;2310;-76
2023/11/26 15:13:13;;;;;;;;;;;;;;;;;;2209055;59;2684;-76
2023/11/26 15:15:44;;;;;;;;;;;;;;;;;;2209988;59;2240;-77
2023/11/26 15:18:18;;;;;;;;;;;;;;;;;;2206545;58;2172;-77
2023/11/26 15:20:49;;;;;;;;;;;;;;;;;;2206397;59;2404;-77
2023/11/26 15:23:21;;;;;;;;;;;;;;;;;;2209042;59;2257;-78
2023/11/26 15:25:52;;;;;;;;;;;;;;;;;;2210399;59;2196;-77
2023/11/26 15:28:27;;;;;;;;;;;;;;;;;;2214533;58;2572;-21
2023/11/26 15:30:57;;;;;;;;;;;;;;;;;;2208207;59;2312;-19
2023/11/26 15:33:28;;;;;;;;;;;;;;;;;;2207703;59;2233;-19
2023/11/26 15:35:58;;;;;;;;;;;;;;;;;;2210269;66;2819;-21
2023/11/26 15:38:28;;;;;;;;;;;;;;;;;;2208948;59;3084;-19
2023/11/26 15:40:58;;;;;;;;;;;;;;;;;;2202884;59;1926;-19
2023/11/26 15:43:28;;;;;;;;;;;;;;;;;;2210403;59;2088;-19
2023/11/26 15:45:59;;;;;;;;;;;;;;;;;;2210584;66;1974;-22
2023/11/26 15:48:30;;;;;;;;;;;;;;;;;;2208863;59;1511;-19
2023/11/26 15:51:03;;;;;;;;;;;;;;;;;;2210573;66;1743;-19
2023/11/26 15:53:34;;;;;;;;;;;;;;;;;;2209764;59;2090;-19
2023/11/26 15:56:05;;;;;;;;;;;;;;;;;;2206620;66;1859;-19
2023/11/26 15:58:35;;;;;;;;;;;;;;;;;;2219268;58;1984;-19
2023/11/26 16:01:05;;;;;;;;;;;;;;;;;;2209175;66;1805;-20
2023/11/26 16:03:36;;;;;;;;;;;;;;;;;;2209599;59;2462;-20
2023/11/26 16:06:06;;;;;;;;;;;;;;;;;;2208662;59;1976;-18
2023/11/26 16:08:37;;;;;;;;;;;;;;;;;;2209447;66;1662;-19
2023/11/26 16:11:08;;;;;;;;;;;;;;;;;;2206059;59;1900;-20
2023/11/26 16:13:38;;;;;;;;;;;;;;;;;;2209951;59;2215;-19
2023/11/26 16:16:09;;;;;;;;;;;;;;;;;;2207546;59;1708;-19
2023/11/26 16:18:39;;;;;;;;;;;;;;;;;;2206012;59;2402;-19
2023/11/26 16:21:11;;;;;;;;;;;;;;;;;;2208829;66;1977;-19
2023/11/26 16:23:42;;;;;;;;;;;;;;;;;;2207566;66;2190;-19
2023/11/26 16:26:12;;;;;;;;;;;;;;;;;;2205072;59;1929;-19
2023/11/26 16:28:43;;;;;;;;;;;;;;;;;;2206493;59;2854;-21
2023/11/26 16:31:13;;;;;;;;;;;;;;;;;;2208358;59;2294;-21
2023/11/26 16:33:46;;;;;;;;;;;;;;;;;;2209925;59;2564;-21
2023/11/26 16:36:17;;;;;;;;;;;;;;;;;;2209784;66;1809;-23
2023/11/26 16:38:48;;;;;;;;;;;;;;;;;;2208063;59;2430;-22
2023/11/26 16:41:18;;;;;;;;;;;;;;;;;;2208449;59;2143;-24
2023/11/26 16:43:49;;;;;;;;;;;;;;;;;;2206998;66;1818;-24
2023/11/26 16:46:20;;;;;;;;;;;;;;;;;;2207943;59;3059;-23
2023/11/26 16:48:50;;;;;;;;;;;;;;;;;;2206996;59;2744;-23
2023/11/26 16:53:58;;;;;;;;;;;;;;;;;;2207436;58;2436;-22
2023/11/26 16:56:28;;;;;;;;;;;;;;;;;;2208052;58;1772;-21
2023/11/26 16:58:59;;;;;;;;;;;;;;;;;;2206915;59;1826;-21
2023/11/26 17:01:29;;;;;;;;;;;;;;;;;;2207979;66;2017;-22
2023/11/26 17:04:00;;;;;;;;;;;;;;;;;;2206915;59;2607;-21
2023/11/26 17:06:31;;;;;;;;;;;;;;;;;;2206897;66;1941;-22
2023/11/26 17:09:01;;;;;;;;;;;;;;;;;;2207212;58;2428;-21
2023/11/26 17:11:31;;;;;;;;;;;;;;;;;;2208384;59;2057;-21
2023/11/26 17:14:02;;;;;;;;;;;;;;;;;;2207437;59;1941;-22
2023/11/26 17:16:33;;;;;;;;;;;;;;;;;;2207619;66;1810;-22
2023/11/26 17:19:03;;;;;;;;;;;;;;;;;;2206271;66;2052;-21
2023/11/26 17:21:37;;;;;;;;;;;;;;;;;;2207530;66;1912;-21
2023/11/26 17:24:08;;;;;;;;;;;;;;;;;;2204611;66;1853;-22
2023/11/26 17:26:38;;;;;;;;;;;;;;;;;;2207382;58;1943;-21
2023/11/26 17:29:08;;;;;;;;;;;;;;;;;;2207175;59;2395;-22
2023/11/26 17:31:39;;;;;;;;;;;;;;;;;;2208153;66;1879;-21
2023/11/26 17:34:10;;;;;;;;;;;;;;;;;;2206519;66;2083;-21
2023/11/26 17:36:43;;;;;;;;;;;;;;;;;;2204463;67;2267;-21
2023/11/26 17:39:14;;;;;;;;;;;;;;;;;;2209722;58;2164;-21
2023/11/26 17:41:44;;;;;;;;;;;;;;;;;;2207597;59;1967;-21